createdAt,value
2022-09-06T00:00:39.126Z,13.89
2022-09-06T00:03:05.540Z,13.87
2022-09-06T00:05:31.944Z,13.77
2022-09-06T00:07:58.841Z,13.92
2022-09-06T00:10:25.193Z,13.83
2022-09-06T00:12:51.432Z,13.80
2022-09-06T00:15:17.820Z,13.85
2022-09-06T00:17:44.069Z,13.75
2022-09-06T00:20:10.375Z,13.76
2022-09-06T00:22:37.046Z,13.78
2022-09-06T00:25:07.678Z,13.72
2022-09-06T00:27:33.980Z,13.78
2022-09-06T00:30:00.204Z,13.70
2022-09-06T00:32:26.456Z,13.69
2022-09-06T00:34:52.679Z,13.66
2022-09-06T00:37:18.917Z,13.57
2022-09-06T00:39:45.204Z,13.57
2022-09-06T00:42:11.708Z,13.62
2022-09-06T00:44:38.086Z,13.56
2022-09-06T00:47:04.393Z,13.59
2022-09-06T00:49:44.659Z,13.56
2022-09-06T00:52:11.867Z,13.48
2022-09-06T00:54:38.112Z,13.59
2022-09-06T00:57:04.420Z,13.63
2022-09-06T00:59:31.300Z,13.49
2022-09-06T01:01:57.662Z,13.49
2022-09-06T01:04:23.989Z,13.45
2022-09-06T01:06:55.793Z,13.47
2022-09-06T01:09:27.016Z,13.47
2022-09-06T01:11:56.222Z,13.48
2022-09-06T01:14:44.202Z,13.46
2022-09-06T01:17:16.703Z,13.56
2022-09-06T01:20:00.185Z,13.45
2022-09-06T01:22:58.860Z,13.38
2022-09-06T01:25:27.842Z,13.46
2022-09-06T01:28:17.507Z,13.41
2022-09-06T01:31:02.653Z,13.43
2022-09-06T01:33:28.919Z,13.42
2022-09-06T01:35:59.949Z,13.23
2022-09-06T01:38:26.331Z,13.29
2022-09-06T01:40:52.610Z,13.26
2022-09-06T01:43:22.105Z,13.20
2022-09-06T01:46:02.095Z,13.18
2022-09-06T01:48:52.286Z,13.17
2022-09-06T01:51:38.166Z,13.14
2022-09-06T01:54:15.047Z,13.12
2022-09-06T01:56:50.321Z,13.16
2022-09-06T01:59:22.534Z,13.15
2022-09-06T02:01:54.670Z,13.04
2022-09-06T02:04:28.313Z,13.00
2022-09-06T02:06:57.612Z,12.92
2022-09-06T02:09:24.396Z,12.96
2022-09-06T02:11:51.626Z,13.07
2022-09-06T02:14:20.495Z,12.96
2022-09-06T02:16:46.808Z,13.00
2022-09-06T02:19:28.053Z,12.91
2022-09-06T02:21:54.305Z,12.92
2022-09-06T02:24:25.548Z,12.94
2022-09-06T02:26:51.787Z,12.84
2022-09-06T02:29:18.037Z,12.85
2022-09-06T02:31:45.450Z,12.85
2022-09-06T02:34:11.696Z,12.88
2022-09-06T02:36:37.982Z,12.90
2022-09-06T02:39:04.792Z,12.83
2022-09-06T02:41:31.042Z,12.79
2022-09-06T02:43:57.280Z,12.73
2022-09-06T02:46:23.559Z,12.80
2022-09-06T02:48:50.033Z,12.87
2022-09-06T02:51:16.269Z,12.76
2022-09-06T02:53:42.523Z,12.70
2022-09-06T02:56:08.768Z,12.70
2022-09-06T02:58:35.040Z,12.69
2022-09-06T03:01:01.353Z,12.59
2022-09-06T03:03:27.617Z,12.68
2022-09-06T03:05:54.000Z,12.62
2022-09-06T03:08:20.601Z,12.67
2022-09-06T03:10:54.016Z,12.53
2022-09-06T03:13:20.405Z,12.56
2022-09-06T03:15:50.009Z,12.59
2022-09-06T03:18:16.253Z,12.55
2022-09-06T03:20:42.493Z,12.43
2022-09-06T03:23:08.732Z,12.55
2022-09-06T03:25:35.017Z,12.48
2022-09-06T03:28:01.349Z,12.47
2022-09-06T03:30:27.657Z,12.52
2022-09-06T03:32:53.986Z,12.44
2022-09-06T03:35:20.217Z,12.48
2022-09-06T03:37:46.481Z,12.39
2022-09-06T03:40:12.726Z,12.30
2022-09-06T03:42:38.968Z,12.30
2022-09-06T03:45:05.387Z,12.26
2022-09-06T03:47:31.631Z,12.24
2022-09-06T03:49:57.874Z,12.25
2022-09-06T03:52:24.116Z,12.26
2022-09-06T03:54:50.357Z,12.25
2022-09-06T03:57:16.617Z,12.13
2022-09-06T03:59:42.852Z,12.04
2022-09-06T04:02:09.204Z,12.13
2022-09-06T04:04:35.534Z,12.25
2022-09-06T04:07:01.778Z,12.29
2022-09-06T04:09:28.024Z,12.11
2022-09-06T04:11:54.268Z,11.96
2022-09-06T04:14:20.508Z,12.12
2022-09-06T04:16:46.823Z,12.04
2022-09-06T04:19:13.108Z,12.07
2022-09-06T04:21:39.341Z,11.95
2022-09-06T04:24:05.580Z,11.93
2022-09-06T04:26:31.822Z,11.96
2022-09-06T04:28:58.073Z,12.15
2022-09-06T04:31:24.365Z,11.99
2022-09-06T04:33:50.651Z,11.87
2022-09-06T04:36:16.902Z,11.74
2022-09-06T04:38:43.490Z,11.86
2022-09-06T04:41:10.238Z,11.97
2022-09-06T04:43:36.484Z,11.82
2022-09-06T04:46:03.832Z,11.77
2022-09-06T04:48:30.122Z,11.80
2022-09-06T04:50:56.354Z,11.85
2022-09-06T04:53:22.610Z,11.95
2022-09-06T04:55:48.836Z,11.92
2022-09-06T04:58:15.080Z,11.92
2022-09-06T05:00:41.397Z,12.06
2022-09-06T05:03:07.756Z,12.24
2022-09-06T05:05:34.022Z,12.25
2022-09-06T05:08:00.260Z,12.61
2022-09-06T05:10:26.501Z,13.38
2022-09-06T05:12:53.209Z,13.79
2022-09-06T05:15:19.747Z,13.77
2022-09-06T05:17:45.990Z,13.93
2022-09-06T05:20:12.245Z,13.60
2022-09-06T05:22:38.715Z,13.44
2022-09-06T05:25:05.114Z,13.17
2022-09-06T05:27:31.365Z,13.10
2022-09-06T05:29:57.618Z,12.89
2022-09-06T05:32:23.852Z,12.97
2022-09-06T05:34:50.113Z,12.81
2022-09-06T05:37:16.357Z,12.74
2022-09-06T05:39:42.666Z,12.66
2022-09-06T05:42:08.903Z,12.59
2022-09-06T05:44:38.145Z,12.61
2022-09-06T05:47:04.441Z,12.53
2022-09-06T05:49:30.697Z,12.54
2022-09-06T05:51:56.978Z,12.55
2022-09-06T05:54:23.229Z,12.56
2022-09-06T05:56:49.464Z,12.61
2022-09-06T05:59:15.715Z,12.61
2022-09-06T06:01:51.782Z,12.68
2022-09-06T06:04:18.061Z,12.61
2022-09-06T06:06:44.542Z,12.77
2022-09-06T06:09:10.804Z,12.79
2022-09-06T06:11:37.031Z,12.75
2022-09-06T06:14:03.484Z,12.76
2022-09-06T06:16:29.971Z,12.83
2022-09-06T06:18:56.314Z,12.90
2022-09-06T06:21:23.108Z,12.95
2022-09-06T06:23:50.054Z,12.91
2022-09-06T06:26:16.290Z,13.06
2022-09-06T06:28:42.550Z,13.49
2022-09-06T06:31:09.165Z,13.99
2022-09-06T06:33:35.408Z,14.01
2022-09-06T06:36:13.800Z,13.90
2022-09-06T06:38:41.641Z,13.86
2022-09-06T06:41:08.266Z,13.74
2022-09-06T06:43:34.562Z,13.80
2022-09-06T06:46:00.846Z,13.85
2022-09-06T06:48:27.191Z,14.00
2022-09-06T06:50:53.514Z,13.87
2022-09-06T06:53:19.763Z,13.73
2022-09-06T06:55:46.289Z,13.64
2022-09-06T06:58:12.528Z,13.61
2022-09-06T07:00:38.810Z,13.56
2022-09-06T07:03:05.082Z,13.54
2022-09-06T07:08:17.568Z,13.56
2022-09-06T07:10:43.805Z,13.73
2022-09-06T07:13:10.049Z,13.77
2022-09-06T07:15:36.288Z,13.90
2022-09-06T07:18:02.518Z,13.85
2022-09-06T07:20:28.927Z,13.94
2022-09-06T07:25:44.745Z,14.06
2022-09-06T07:28:11.000Z,14.12
2022-09-06T07:30:37.298Z,14.18
2022-09-06T07:33:03.910Z,14.21
2022-09-06T07:35:30.160Z,14.43
2022-09-06T07:37:56.717Z,14.85
2022-09-06T07:40:23.606Z,15.20
2022-09-06T07:42:49.932Z,15.78
2022-09-06T07:45:16.229Z,16.08
2022-09-06T07:47:57.809Z,16.37
2022-09-06T07:53:14.842Z,17.46
2022-09-06T07:55:43.989Z,17.46
2022-09-06T07:58:10.233Z,17.49
2022-09-06T08:00:36.526Z,17.50
2022-09-06T08:03:02.799Z,17.23
2022-09-06T08:11:01.598Z,18.59
2022-09-06T08:13:27.939Z,18.61
2022-09-06T08:16:00.576Z,18.28
2022-09-06T08:18:26.841Z,18.12
2022-09-06T08:20:53.095Z,18.71
2022-09-06T08:23:19.320Z,19.29
2022-09-06T08:25:55.126Z,18.92
2022-09-06T08:28:24.497Z,19.70
2022-09-06T08:30:51.909Z,19.95
2022-09-06T08:33:18.398Z,19.62
2022-09-06T08:35:44.657Z,19.52
2022-09-06T08:38:10.889Z,19.79
2022-09-06T08:40:37.136Z,19.03
2022-09-06T08:43:03.379Z,19.15
2022-09-06T08:45:29.626Z,19.53
2022-09-06T08:47:55.879Z,19.91
2022-09-06T08:50:22.130Z,20.24
2022-09-06T08:53:16.800Z,20.13
2022-09-06T08:55:55.636Z,19.89
2022-09-06T08:58:24.941Z,20.17
2022-09-06T09:00:52.383Z,20.11
2022-09-06T09:03:19.901Z,19.89
2022-09-06T09:05:47.477Z,19.75
2022-09-06T09:08:21.161Z,20.21
2022-09-06T09:10:48.322Z,20.42
2022-09-06T09:13:33.414Z,19.97
2022-09-06T09:15:59.723Z,19.53
2022-09-06T09:18:27.508Z,19.29
2022-09-06T09:20:53.795Z,18.79
2022-09-06T09:23:20.042Z,18.78
2022-09-06T09:25:46.374Z,18.95
2022-09-06T09:28:15.240Z,19.13
2022-09-06T09:33:23.802Z,18.91
2022-09-06T09:35:50.130Z,18.61
2022-09-06T09:38:32.975Z,18.79
2022-09-06T09:41:05.614Z,18.84
2022-09-06T09:43:33.162Z,18.63
2022-09-06T09:46:18.453Z,18.64
2022-09-06T09:49:01.188Z,18.44
2022-09-06T09:51:27.901Z,18.55
2022-09-06T09:54:01.126Z,18.72
2022-09-06T09:56:41.098Z,18.80
2022-09-06T09:59:08.169Z,19.00
2022-09-06T10:01:34.421Z,19.00
2022-09-06T10:09:38.057Z,19.53
2022-09-06T10:12:04.352Z,19.74
2022-09-06T10:14:31.353Z,19.66
2022-09-06T10:16:57.762Z,19.38
2022-09-06T10:19:40.091Z,19.33
2022-09-06T10:22:15.472Z,19.52
2022-09-06T10:24:47.449Z,19.79
2022-09-06T10:27:13.698Z,19.73
2022-09-06T10:29:39.908Z,19.53
2022-09-06T10:32:17.170Z,19.33
2022-09-06T10:34:55.457Z,19.46
2022-09-06T10:37:21.661Z,19.33
2022-09-06T10:39:47.892Z,19.52
2022-09-06T10:42:18.115Z,19.46
2022-09-06T10:44:52.145Z,19.54
2022-09-06T10:47:18.387Z,19.91
2022-09-06T10:49:45.120Z,20.08
2022-09-06T10:52:15.429Z,20.25
2022-09-06T10:54:41.699Z,19.94
2022-09-06T10:57:09.322Z,19.83
2022-09-06T11:00:15.555Z,19.79
2022-09-06T11:05:47.017Z,19.72
2022-09-06T11:11:02.112Z,19.86
2022-09-06T11:13:28.362Z,20.07
2022-09-06T11:16:15.856Z,20.00
2022-09-06T11:18:49.582Z,19.67
2022-09-06T11:21:26.437Z,19.49
2022-09-06T11:23:53.591Z,19.39
2022-09-06T11:26:29.036Z,19.33
2022-09-06T11:28:56.520Z,19.34
2022-09-06T11:34:18.941Z,19.89
2022-09-06T11:36:45.565Z,20.25
2022-09-06T11:39:11.808Z,20.31
2022-09-06T11:41:38.614Z,20.59
2022-09-06T11:44:05.055Z,20.71
2022-09-06T11:46:34.443Z,20.69
2022-09-06T11:49:01.380Z,20.79
2022-09-06T11:51:34.788Z,20.37
2022-09-06T11:54:03.648Z,20.15
2022-09-06T11:56:29.835Z,20.05
2022-09-06T11:58:57.374Z,20.05
2022-09-06T12:01:33.275Z,20.26
2022-09-06T12:04:04.194Z,20.56
2022-09-06T12:06:31.620Z,20.74
2022-09-06T12:08:57.869Z,20.97
2022-09-06T12:11:56.553Z,20.87
2022-09-06T12:14:28.590Z,20.83
2022-09-06T12:16:57.784Z,21.11
2022-09-06T12:19:44.523Z,21.13
2022-09-06T12:22:26.272Z,21.18
2022-09-06T12:24:59.408Z,21.55
2022-09-06T12:27:26.141Z,21.59
2022-09-06T12:29:52.346Z,21.54
2022-09-06T12:32:19.486Z,21.45
2022-09-06T12:34:45.728Z,21.05
2022-09-06T12:37:11.978Z,20.88
2022-09-06T12:39:38.268Z,20.71
2022-09-06T12:42:10.722Z,20.66
2022-09-06T12:44:37.567Z,20.81
2022-09-06T12:47:11.415Z,20.93
2022-09-06T12:49:37.668Z,20.92
2022-09-06T12:52:22.041Z,20.78
2022-09-06T12:54:48.945Z,20.83
2022-09-06T12:57:18.341Z,20.92
2022-09-06T12:59:48.329Z,21.35
2022-09-06T13:02:16.295Z,21.79
2022-09-06T13:04:43.083Z,21.65
2022-09-06T13:07:10.721Z,21.96
2022-09-06T13:09:36.971Z,22.03
2022-09-06T13:12:23.472Z,21.85
2022-09-06T13:14:51.865Z,21.67
2022-09-06T13:17:24.985Z,21.59
2022-09-06T13:19:51.220Z,21.66
2022-09-06T13:22:36.712Z,21.65
2022-09-06T13:25:02.972Z,21.55
2022-09-06T13:27:35.529Z,21.48
2022-09-06T13:30:06.037Z,21.46
2022-09-06T13:32:32.292Z,21.44
2022-09-06T13:34:58.955Z,21.28
2022-09-06T13:37:25.842Z,21.09
2022-09-06T13:39:52.189Z,20.97
2022-09-06T13:42:31.160Z,20.69
2022-09-06T13:45:02.183Z,20.65
2022-09-06T13:47:29.044Z,20.46
2022-09-06T13:49:55.286Z,20.39
2022-09-06T13:52:23.216Z,20.26
2022-09-06T13:54:49.460Z,20.14
2022-09-06T13:57:15.698Z,20.11
2022-09-06T13:59:41.951Z,20.21
2022-09-06T14:02:11.956Z,20.37
2022-09-06T14:04:38.275Z,20.39
2022-09-06T14:07:04.588Z,20.50
2022-09-06T14:09:30.841Z,20.51
2022-09-06T14:11:57.081Z,20.53
2022-09-06T14:14:23.326Z,20.53
2022-09-06T14:16:49.563Z,20.50
2022-09-06T14:19:15.822Z,20.46
2022-09-06T14:21:42.063Z,20.31
2022-09-06T14:24:08.321Z,20.13
2022-09-06T14:26:35.234Z,20.13
2022-09-06T14:29:01.498Z,20.00
2022-09-06T14:31:27.856Z,19.90
2022-09-06T14:33:54.547Z,19.78
2022-09-06T14:36:23.057Z,19.84
2022-09-06T14:38:49.289Z,19.96
2022-09-06T14:41:15.712Z,19.84
2022-09-06T14:43:42.181Z,19.84
2022-09-06T14:46:12.593Z,19.96
2022-09-06T14:48:42.151Z,20.02
2022-09-06T14:51:18.879Z,19.86
2022-09-06T14:53:45.448Z,20.02
2022-09-06T14:56:11.956Z,19.98
2022-09-06T14:58:38.528Z,20.03
2022-09-06T15:01:07.562Z,20.01
2022-09-06T15:03:34.179Z,19.87
2022-09-06T15:06:00.421Z,19.87
2022-09-06T15:08:26.658Z,19.82
2022-09-06T15:10:53.435Z,19.80
2022-09-06T15:13:19.671Z,19.76
2022-09-06T15:15:45.978Z,19.64
2022-09-06T15:18:12.259Z,19.56
2022-09-06T15:20:38.505Z,19.63
2022-09-06T15:25:51.384Z,19.54
2022-09-06T15:28:17.866Z,19.48
2022-09-06T15:30:44.168Z,19.62
2022-09-06T15:33:10.460Z,19.46
2022-09-06T15:35:37.771Z,19.55
2022-09-06T15:38:04.228Z,19.59
2022-09-06T15:40:30.468Z,19.57
2022-09-06T15:42:56.719Z,19.58
2022-09-06T15:45:22.970Z,19.54
2022-09-06T15:47:49.212Z,19.57
2022-09-06T15:50:29.035Z,19.51
2022-09-06T15:53:01.669Z,19.54
2022-09-06T15:55:27.915Z,19.75
2022-09-06T15:57:54.163Z,19.52
2022-09-06T16:00:20.421Z,19.49
2022-09-06T16:02:46.779Z,19.54
2022-09-06T16:05:13.066Z,19.31
2022-09-06T16:07:39.331Z,19.30
2022-09-06T16:10:05.588Z,19.27
2022-09-06T16:12:31.817Z,19.33
2022-09-06T16:14:58.078Z,19.26
2022-09-06T16:17:24.312Z,19.25
2022-09-06T16:19:50.734Z,19.21
2022-09-06T16:22:16.984Z,19.23
2022-09-06T16:24:43.239Z,19.18
2022-09-06T16:27:09.481Z,19.03
2022-09-06T16:29:35.735Z,19.12
2022-09-06T16:32:02.004Z,18.93
2022-09-06T16:34:28.269Z,18.88
2022-09-06T16:36:54.506Z,18.81
2022-09-06T16:39:20.747Z,18.94
2022-09-06T16:41:46.977Z,19.02
2022-09-06T16:44:14.084Z,18.90
2022-09-06T16:46:40.339Z,18.92
2022-09-06T16:49:06.592Z,18.88
2022-09-06T16:51:32.834Z,18.63
2022-09-06T16:53:59.247Z,18.46
2022-09-06T16:56:26.417Z,18.35
2022-09-06T16:58:53.485Z,18.37
2022-09-06T17:01:20.012Z,18.44
2022-09-06T17:03:46.439Z,18.33
2022-09-06T17:06:12.724Z,18.26
2022-09-06T17:08:38.966Z,18.22
2022-09-06T17:11:12.854Z,18.12
2022-09-06T17:13:39.088Z,18.13
2022-09-06T17:16:05.481Z,18.27
2022-09-06T17:18:32.798Z,18.22
2022-09-06T17:20:59.358Z,18.04
2022-09-06T17:23:25.601Z,18.08
2022-09-06T17:25:51.847Z,17.97
2022-09-06T17:28:18.093Z,17.87
2022-09-06T17:30:44.390Z,17.96
2022-09-06T17:33:10.680Z,17.93
2022-09-06T17:35:36.926Z,17.75
2022-09-06T17:38:03.170Z,17.87
2022-09-06T17:40:29.413Z,17.80
2022-09-06T17:42:55.640Z,17.86
2022-09-06T17:45:21.882Z,17.66
2022-09-06T17:47:48.122Z,17.62
2022-09-06T17:50:14.379Z,17.67
2022-09-06T17:52:40.633Z,17.75
2022-09-06T17:55:07.084Z,17.57
2022-09-06T17:57:33.330Z,17.43
2022-09-06T17:59:59.594Z,17.41
2022-09-06T18:02:25.834Z,17.37
2022-09-06T18:04:52.119Z,17.30
2022-09-06T18:07:18.398Z,17.22
2022-09-06T18:09:44.659Z,17.22
2022-09-06T18:12:10.893Z,17.24
2022-09-06T18:14:37.136Z,17.09
2022-09-06T18:17:03.368Z,17.07
2022-09-06T18:19:29.671Z,17.10
2022-09-06T18:21:55.910Z,16.95
2022-09-06T18:24:22.164Z,17.00
2022-09-06T18:26:48.389Z,16.89
2022-09-06T18:29:14.721Z,16.75
2022-09-06T18:31:41.128Z,16.73
2022-09-06T18:34:07.530Z,16.87
2022-09-06T18:36:33.768Z,16.75
2022-09-06T18:39:00.637Z,16.81
2022-09-06T18:41:26.880Z,16.66
2022-09-06T18:43:53.138Z,16.56
2022-09-06T18:46:19.372Z,16.54
2022-09-06T18:48:45.619Z,16.50
2022-09-06T18:51:12.496Z,16.49
2022-09-06T18:53:44.004Z,16.41
2022-09-06T18:56:11.633Z,16.51
2022-09-06T18:58:37.954Z,16.49
2022-09-06T19:01:04.809Z,16.31
2022-09-06T19:03:31.308Z,16.33
2022-09-06T19:06:04.121Z,16.29
2022-09-06T19:08:30.436Z,16.29
2022-09-06T19:11:03.284Z,16.16
2022-09-06T19:13:29.833Z,16.15
2022-09-06T19:15:56.149Z,16.17
2022-09-06T19:18:25.602Z,16.06
2022-09-06T19:20:58.264Z,16.06
2022-09-06T19:23:24.695Z,16.14
2022-09-06T19:25:57.777Z,16.06
2022-09-06T19:28:24.018Z,16.06
2022-09-06T19:30:50.260Z,15.89
2022-09-06T19:33:16.501Z,15.73
2022-09-06T19:35:55.908Z,15.78
2022-09-06T19:38:37.368Z,15.72
2022-09-06T19:41:14.277Z,15.65
2022-09-06T19:43:40.553Z,15.63
2022-09-06T19:46:07.396Z,15.67
2022-09-06T19:48:34.122Z,15.58
2022-09-06T19:51:03.917Z,15.42
2022-09-06T19:53:30.149Z,15.43
2022-09-06T19:55:56.718Z,15.51
2022-09-06T19:58:22.970Z,15.51
2022-09-06T20:00:49.290Z,15.49
2022-09-06T20:03:15.563Z,15.46
2022-09-06T20:05:41.810Z,15.35
2022-09-06T20:08:08.044Z,15.29
2022-09-06T20:10:34.298Z,15.32
2022-09-06T20:13:00.532Z,15.40
2022-09-06T20:15:26.786Z,15.31
2022-09-06T20:17:53.024Z,15.22
2022-09-06T20:20:19.282Z,15.33
2022-09-06T20:22:45.896Z,15.23
2022-09-06T20:25:12.141Z,15.27
2022-09-06T20:27:41.384Z,15.16
2022-09-06T20:30:10.825Z,15.24
2022-09-06T20:32:37.070Z,15.22
2022-09-06T20:35:03.342Z,15.12
2022-09-06T20:37:29.589Z,15.06
2022-09-06T20:39:55.899Z,14.97
2022-09-06T20:42:22.169Z,14.82
2022-09-06T20:44:48.418Z,14.68
2022-09-06T20:47:14.649Z,14.78
2022-09-06T20:49:40.906Z,14.79
2022-09-06T20:52:07.151Z,14.91
2022-09-06T20:54:33.411Z,14.93
2022-09-06T20:56:59.654Z,14.91
2022-09-06T20:59:25.919Z,14.58
2022-09-06T21:01:52.218Z,14.53
2022-09-06T21:04:18.492Z,14.48
2022-09-06T21:06:44.734Z,14.59
2022-09-06T21:09:11.706Z,14.58
2022-09-06T21:11:37.949Z,14.70
2022-09-06T21:14:04.206Z,14.95
2022-09-06T21:16:30.614Z,14.92
2022-09-06T21:18:57.634Z,14.95
2022-09-06T21:21:24.240Z,14.74
2022-09-06T21:23:50.673Z,14.60
2022-09-06T21:26:16.917Z,14.42
2022-09-06T21:28:43.379Z,14.53
2022-09-06T21:31:12.170Z,14.54
2022-09-06T21:33:39.662Z,14.52
2022-09-06T21:36:09.762Z,14.57
2022-09-06T21:38:37.777Z,14.39
2022-09-06T21:41:04.337Z,14.46
2022-09-06T21:43:30.674Z,14.43
2022-09-06T21:45:56.926Z,14.35
2022-09-06T21:48:23.174Z,14.38
2022-09-06T21:50:49.409Z,14.32
2022-09-06T21:53:15.695Z,14.28
2022-09-06T21:55:41.977Z,14.35
2022-09-06T21:58:08.468Z,14.42
2022-09-06T22:00:34.783Z,14.43
2022-09-06T22:03:01.036Z,14.47
2022-09-06T22:05:27.291Z,14.45
2022-09-06T22:07:53.525Z,14.52
2022-09-06T22:10:19.777Z,14.60
2022-09-06T22:12:46.005Z,14.48
2022-09-06T22:15:12.259Z,14.41
2022-09-06T22:17:38.493Z,14.51
2022-09-06T22:20:04.801Z,14.63
2022-09-06T22:22:31.036Z,14.42
2022-09-06T22:24:57.277Z,14.36
2022-09-06T22:27:23.506Z,14.36
2022-09-06T22:29:49.761Z,14.25
2022-09-06T22:32:16.129Z,14.29
2022-09-06T22:34:42.371Z,14.16
2022-09-06T22:37:08.611Z,14.25
2022-09-06T22:39:34.898Z,14.23
2022-09-06T22:42:01.160Z,14.18
2022-09-06T22:44:27.620Z,14.06
2022-09-06T22:46:53.916Z,13.94
2022-09-06T22:49:20.196Z,13.83
2022-09-06T22:51:46.446Z,13.86
2022-09-06T22:54:12.684Z,13.81
2022-09-06T22:56:38.933Z,13.84
2022-09-06T22:59:05.179Z,13.83
2022-09-06T23:01:31.466Z,13.93
2022-09-06T23:03:57.711Z,13.86
2022-09-06T23:06:23.958Z,13.83
2022-09-06T23:08:50.248Z,13.87
2022-09-06T23:11:16.987Z,13.84
2022-09-06T23:13:43.234Z,13.80
2022-09-06T23:16:10.209Z,13.81
2022-09-06T23:18:36.490Z,13.85
2022-09-06T23:21:03.557Z,13.95
2022-09-06T23:23:29.849Z,13.99
2022-09-06T23:25:56.107Z,14.09
2022-09-06T23:28:22.359Z,14.01
2022-09-06T23:30:48.609Z,13.91
2022-09-06T23:33:14.845Z,13.91
2022-09-06T23:35:41.108Z,13.88
2022-09-06T23:38:07.361Z,13.94
2022-09-06T23:40:33.608Z,14.05
2022-09-06T23:42:59.852Z,13.90
2022-09-06T23:45:26.127Z,13.98
2022-09-06T23:47:52.374Z,14.13
2022-09-06T23:50:18.623Z,14.01
2022-09-06T23:52:44.861Z,13.97
2022-09-06T23:55:11.119Z,13.82
2022-09-06T23:57:37.354Z,13.86
